sensor_id;sensor_type;location;lat;lon;timestamp;P1;durP1;ratioP1;P2;durP2;ratioP2
44169;SDS011;29836;52.286;9.576;2023-01-25T00:00:47;10.63;;;5.93;;
44169;SDS011;29836;52.286;9.576;2023-01-25T00:03:13;12.25;;;6.10;;
44169;SDS011;29836;52.286;9.576;2023-01-25T00:05:38;13.23;;;5.53;;
44169;SDS011;29836;52.286;9.576;2023-01-25T00:08:04;12.95;;;5.22;;
44169;SDS011;29836;52.286;9.576;2023-01-25T00:10:29;13.32;;;5.60;;
44169;SDS011;29836;52.286;9.576;2023-01-25T00:12:55;13.20;;;5.72;;
44169;SDS011;29836;52.286;9.576;2023-01-25T00:15:21;11.35;;;5.30;;
44169;SDS011;29836;52.286;9.576;2023-01-25T00:17:46;9.65;;;4.28;;
44169;SDS011;29836;52.286;9.576;2023-01-25T00:20:12;9.88;;;5.22;;
44169;SDS011;29836;52.286;9.576;2023-01-25T00:22:37;8.07;;;4.20;;
44169;SDS011;29836;52.286;9.576;2023-01-25T00:25:03;10.15;;;5.43;;
44169;SDS011;29836;52.286;9.576;2023-01-25T00:27:29;14.45;;;6.00;;
44169;SDS011;29836;52.286;9.576;2023-01-25T00:29:54;10.93;;;5.93;;
44169;SDS011;29836;52.286;9.576;2023-01-25T00:34:46;10.27;;;5.50;;
44169;SDS011;29836;52.286;9.576;2023-01-25T00:37:23;11.57;;;5.28;;
44169;SDS011;29836;52.286;9.576;2023-01-25T00:39:52;7.82;;;4.32;;
44169;SDS011;29836;52.286;9.576;2023-01-25T00:42:17;12.27;;;4.25;;
44169;SDS011;29836;52.286;9.576;2023-01-25T00:44:44;9.00;;;4.22;;
44169;SDS011;29836;52.286;9.576;2023-01-25T00:47:10;11.00;;;5.65;;
44169;SDS011;29836;52.286;9.576;2023-01-25T00:49:37;10.25;;;5.25;;
44169;SDS011;29836;52.286;9.576;2023-01-25T00:52:06;11.65;;;5.03;;
44169;SDS011;29836;52.286;9.576;2023-01-25T00:54:32;9.02;;;4.20;;
44169;SDS011;29836;52.286;9.576;2023-01-25T00:56:57;10.00;;;4.50;;
44169;SDS011;29836;52.286;9.576;2023-01-25T00:59:23;9.02;;;4.43;;
44169;SDS011;29836;52.286;9.576;2023-01-25T01:01:49;8.27;;;4.70;;
44169;SDS011;29836;52.286;9.576;2023-01-25T01:04:15;7.53;;;3.20;;
44169;SDS011;29836;52.286;9.576;2023-01-25T01:06:41;8.68;;;3.17;;
44169;SDS011;29836;52.286;9.576;2023-01-25T01:09:07;7.82;;;3.70;;
44169;SDS011;29836;52.286;9.576;2023-01-25T01:11:36;7.25;;;3.50;;
44169;SDS011;29836;52.286;9.576;2023-01-25T01:14:02;10.40;;;3.78;;
44169;SDS011;29836;52.286;9.576;2023-01-25T01:16:27;8.85;;;3.85;;
44169;SDS011;29836;52.286;9.576;2023-01-25T01:18:53;9.43;;;3.63;;
44169;SDS011;29836;52.286;9.576;2023-01-25T01:21:19;7.70;;;3.97;;
44169;SDS011;29836;52.286;9.576;2023-01-25T01:23:45;6.93;;;4.13;;
44169;SDS011;29836;52.286;9.576;2023-01-25T01:26:11;12.27;;;3.80;;
44169;SDS011;29836;52.286;9.576;2023-01-25T01:28:39;6.72;;;3.28;;
44169;SDS011;29836;52.286;9.576;2023-01-25T01:31:10;8.20;;;4.65;;
44169;SDS011;29836;52.286;9.576;2023-01-25T01:33:37;8.25;;;3.72;;
44169;SDS011;29836;52.286;9.576;2023-01-25T01:36:13;7.47;;;3.47;;
44169;SDS011;29836;52.286;9.576;2023-01-25T01:38:40;8.07;;;3.85;;
44169;SDS011;29836;52.286;9.576;2023-01-25T01:41:07;7.70;;;3.83;;
44169;SDS011;29836;52.286;9.576;2023-01-25T01:43:32;8.68;;;4.75;;
44169;SDS011;29836;52.286;9.576;2023-01-25T01:45:59;10.05;;;4.28;;
44169;SDS011;29836;52.286;9.576;2023-01-25T01:51:02;9.32;;;4.05;;
44169;SDS011;29836;52.286;9.576;2023-01-25T01:53:34;12.65;;;4.10;;
44169;SDS011;29836;52.286;9.576;2023-01-25T01:56:01;7.85;;;3.72;;
44169;SDS011;29836;52.286;9.576;2023-01-25T01:58:32;9.20;;;5.15;;
44169;SDS011;29836;52.286;9.576;2023-01-25T02:00:57;9.93;;;4.85;;
44169;SDS011;29836;52.286;9.576;2023-01-25T02:03:23;8.90;;;4.57;;
44169;SDS011;29836;52.286;9.576;2023-01-25T02:05:55;9.68;;;4.60;;
44169;SDS011;29836;52.286;9.576;2023-01-25T02:08:25;8.50;;;4.15;;
44169;SDS011;29836;52.286;9.576;2023-01-25T02:10:54;8.30;;;3.50;;
44169;SDS011;29836;52.286;9.576;2023-01-25T02:13:20;11.10;;;4.32;;
44169;SDS011;29836;52.286;9.576;2023-01-25T02:15:46;10.63;;;4.57;;
44169;SDS011;29836;52.286;9.576;2023-01-25T02:18:15;8.25;;;3.65;;
44169;SDS011;29836;52.286;9.576;2023-01-25T02:20:43;8.55;;;3.55;;
44169;SDS011;29836;52.286;9.576;2023-01-25T02:23:16;8.57;;;4.00;;
44169;SDS011;29836;52.286;9.576;2023-01-25T02:25:48;9.30;;;4.68;;
44169;SDS011;29836;52.286;9.576;2023-01-25T02:30:49;9.43;;;4.10;;
44169;SDS011;29836;52.286;9.576;2023-01-25T02:33:15;7.55;;;3.55;;
44169;SDS011;29836;52.286;9.576;2023-01-25T02:38:12;9.73;;;3.72;;
44169;SDS011;29836;52.286;9.576;2023-01-25T02:40:42;9.60;;;3.90;;
44169;SDS011;29836;52.286;9.576;2023-01-25T02:43:17;8.55;;;4.43;;
44169;SDS011;29836;52.286;9.576;2023-01-25T02:45:45;9.13;;;4.82;;
44169;SDS011;29836;52.286;9.576;2023-01-25T02:48:14;10.10;;;4.38;;
44169;SDS011;29836;52.286;9.576;2023-01-25T02:50:40;9.50;;;4.05;;
44169;SDS011;29836;52.286;9.576;2023-01-25T02:53:05;9.15;;;3.60;;
44169;SDS011;29836;52.286;9.576;2023-01-25T02:55:31;7.07;;;2.92;;
44169;SDS011;29836;52.286;9.576;2023-01-25T02:57:56;10.65;;;4.68;;
44169;SDS011;29836;52.286;9.576;2023-01-25T03:00:22;7.95;;;3.75;;
44169;SDS011;29836;52.286;9.576;2023-01-25T03:02:47;6.53;;;3.00;;
44169;SDS011;29836;52.286;9.576;2023-01-25T03:05:13;10.27;;;5.07;;
44169;SDS011;29836;52.286;9.576;2023-01-25T03:07:38;10.48;;;3.83;;
44169;SDS011;29836;52.286;9.576;2023-01-25T03:10:04;9.25;;;3.70;;
44169;SDS011;29836;52.286;9.576;2023-01-25T03:12:29;8.98;;;4.55;;
44169;SDS011;29836;52.286;9.576;2023-01-25T03:14:55;9.68;;;4.07;;
44169;SDS011;29836;52.286;9.576;2023-01-25T03:17:20;7.13;;;3.78;;
44169;SDS011;29836;52.286;9.576;2023-01-25T03:19:46;7.40;;;3.65;;
44169;SDS011;29836;52.286;9.576;2023-01-25T03:22:11;7.15;;;3.50;;
44169;SDS011;29836;52.286;9.576;2023-01-25T03:24:37;8.93;;;4.05;;
44169;SDS011;29836;52.286;9.576;2023-01-25T03:27:02;9.82;;;4.07;;
44169;SDS011;29836;52.286;9.576;2023-01-25T03:29:38;13.52;;;5.88;;
44169;SDS011;29836;52.286;9.576;2023-01-25T03:32:05;7.28;;;4.15;;
44169;SDS011;29836;52.286;9.576;2023-01-25T03:34:31;11.75;;;4.82;;
44169;SDS011;29836;52.286;9.576;2023-01-25T03:36:57;10.40;;;4.90;;
44169;SDS011;29836;52.286;9.576;2023-01-25T03:39:22;8.88;;;3.85;;
44169;SDS011;29836;52.286;9.576;2023-01-25T03:41:48;10.60;;;4.72;;
44169;SDS011;29836;52.286;9.576;2023-01-25T03:44:13;8.52;;;4.35;;
44169;SDS011;29836;52.286;9.576;2023-01-25T03:46:39;8.15;;;4.35;;
44169;SDS011;29836;52.286;9.576;2023-01-25T03:49:05;7.88;;;4.60;;
44169;SDS011;29836;52.286;9.576;2023-01-25T03:51:31;9.27;;;4.80;;
44169;SDS011;29836;52.286;9.576;2023-01-25T03:53:57;11.00;;;4.93;;
44169;SDS011;29836;52.286;9.576;2023-01-25T03:56:22;9.88;;;4.63;;
44169;SDS011;29836;52.286;9.576;2023-01-25T03:58:47;12.45;;;5.35;;
44169;SDS011;29836;52.286;9.576;2023-01-25T04:01:13;9.70;;;4.70;;
44169;SDS011;29836;52.286;9.576;2023-01-25T04:03:39;10.70;;;4.30;;
44169;SDS011;29836;52.286;9.576;2023-01-25T04:06:04;11.90;;;5.00;;
44169;SDS011;29836;52.286;9.576;2023-01-25T04:08:30;8.75;;;4.22;;
44169;SDS011;29836;52.286;9.576;2023-01-25T04:10:59;10.27;;;5.75;;
44169;SDS011;29836;52.286;9.576;2023-01-25T04:13:26;8.55;;;4.05;;
44169;SDS011;29836;52.286;9.576;2023-01-25T04:15:52;10.48;;;5.22;;
44169;SDS011;29836;52.286;9.576;2023-01-25T04:18:18;9.68;;;4.07;;
44169;SDS011;29836;52.286;9.576;2023-01-25T04:20:43;11.02;;;4.70;;
44169;SDS011;29836;52.286;9.576;2023-01-25T04:23:11;9.48;;;4.13;;
44169;SDS011;29836;52.286;9.576;2023-01-25T04:25:37;10.77;;;5.13;;
44169;SDS011;29836;52.286;9.576;2023-01-25T04:28:02;11.35;;;4.85;;
44169;SDS011;29836;52.286;9.576;2023-01-25T04:30:29;8.45;;;4.47;;
44169;SDS011;29836;52.286;9.576;2023-01-25T04:32:54;12.57;;;4.95;;
44169;SDS011;29836;52.286;9.576;2023-01-25T04:35:20;9.73;;;4.60;;
44169;SDS011;29836;52.286;9.576;2023-01-25T04:37:54;10.55;;;5.13;;
44169;SDS011;29836;52.286;9.576;2023-01-25T04:40:21;14.05;;;5.15;;
44169;SDS011;29836;52.286;9.576;2023-01-25T04:42:47;14.50;;;5.40;;
44169;SDS011;29836;52.286;9.576;2023-01-25T04:45:13;11.55;;;5.82;;
44169;SDS011;29836;52.286;9.576;2023-01-25T04:47:38;12.20;;;4.72;;
44169;SDS011;29836;52.286;9.576;2023-01-25T04:50:04;12.57;;;4.97;;
44169;SDS011;29836;52.286;9.576;2023-01-25T04:52:29;9.88;;;4.43;;
44169;SDS011;29836;52.286;9.576;2023-01-25T04:54:55;10.02;;;5.38;;
44169;SDS011;29836;52.286;9.576;2023-01-25T04:57:20;9.23;;;4.40;;
44169;SDS011;29836;52.286;9.576;2023-01-25T04:59:46;10.85;;;4.20;;
44169;SDS011;29836;52.286;9.576;2023-01-25T05:02:11;10.43;;;5.28;;
44169;SDS011;29836;52.286;9.576;2023-01-25T05:04:37;12.65;;;5.57;;
44169;SDS011;29836;52.286;9.576;2023-01-25T05:07:02;14.43;;;6.72;;
44169;SDS011;29836;52.286;9.576;2023-01-25T05:09:28;11.40;;;5.13;;
44169;SDS011;29836;52.286;9.576;2023-01-25T05:11:53;10.93;;;5.20;;
44169;SDS011;29836;52.286;9.576;2023-01-25T05:14:19;11.80;;;5.63;;
44169;SDS011;29836;52.286;9.576;2023-01-25T05:16:44;12.10;;;6.93;;
44169;SDS011;29836;52.286;9.576;2023-01-25T05:19:11;12.05;;;5.00;;
44169;SDS011;29836;52.286;9.576;2023-01-25T05:21:36;13.48;;;5.15;;
44169;SDS011;29836;52.286;9.576;2023-01-25T05:24:20;12.27;;;4.70;;
44169;SDS011;29836;52.286;9.576;2023-01-25T05:26:46;14.27;;;5.57;;
44169;SDS011;29836;52.286;9.576;2023-01-25T05:29:30;10.68;;;5.18;;
44169;SDS011;29836;52.286;9.576;2023-01-25T05:32:01;11.05;;;5.00;;
44169;SDS011;29836;52.286;9.576;2023-01-25T05:34:31;9.40;;;3.85;;
44169;SDS011;29836;52.286;9.576;2023-01-25T05:36:57;12.93;;;5.57;;
44169;SDS011;29836;52.286;9.576;2023-01-25T05:39:23;11.60;;;5.97;;
44169;SDS011;29836;52.286;9.576;2023-01-25T05:41:49;16.35;;;6.10;;
44169;SDS011;29836;52.286;9.576;2023-01-25T05:44:14;8.82;;;4.13;;
44169;SDS011;29836;52.286;9.576;2023-01-25T05:46:40;14.32;;;5.75;;
44169;SDS011;29836;52.286;9.576;2023-01-25T05:49:06;11.15;;;5.55;;
44169;SDS011;29836;52.286;9.576;2023-01-25T05:51:32;9.48;;;4.60;;
44169;SDS011;29836;52.286;9.576;2023-01-25T05:53:59;10.85;;;5.18;;
44169;SDS011;29836;52.286;9.576;2023-01-25T05:56:25;8.85;;;4.38;;
44169;SDS011;29836;52.286;9.576;2023-01-25T05:58:53;13.05;;;4.60;;
44169;SDS011;29836;52.286;9.576;2023-01-25T06:01:20;12.45;;;6.07;;
44169;SDS011;29836;52.286;9.576;2023-01-25T06:03:45;12.77;;;5.43;;
44169;SDS011;29836;52.286;9.576;2023-01-25T06:06:11;10.25;;;5.70;;
44169;SDS011;29836;52.286;9.576;2023-01-25T06:08:37;12.20;;;5.85;;
44169;SDS011;29836;52.286;9.576;2023-01-25T06:11:09;11.45;;;4.43;;
44169;SDS011;29836;52.286;9.576;2023-01-25T06:13:36;9.98;;;4.55;;
44169;SDS011;29836;52.286;9.576;2023-01-25T06:16:02;10.32;;;5.65;;
44169;SDS011;29836;52.286;9.576;2023-01-25T06:18:29;10.80;;;5.45;;
44169;SDS011;29836;52.286;9.576;2023-01-25T06:20:55;12.30;;;5.85;;
44169;SDS011;29836;52.286;9.576;2023-01-25T06:23:22;14.50;;;5.97;;
44169;SDS011;29836;52.286;9.576;2023-01-25T06:25:48;9.10;;;5.20;;
44169;SDS011;29836;52.286;9.576;2023-01-25T06:28:13;12.25;;;5.55;;
44169;SDS011;29836;52.286;9.576;2023-01-25T06:30:39;12.48;;;5.75;;
44169;SDS011;29836;52.286;9.576;2023-01-25T06:33:04;14.95;;;7.13;;
44169;SDS011;29836;52.286;9.576;2023-01-25T06:35:31;11.70;;;5.50;;
44169;SDS011;29836;52.286;9.576;2023-01-25T06:37:57;14.05;;;5.90;;
44169;SDS011;29836;52.286;9.576;2023-01-25T06:40:24;14.73;;;5.78;;
44169;SDS011;29836;52.286;9.576;2023-01-25T06:42:50;13.55;;;6.25;;
44169;SDS011;29836;52.286;9.576;2023-01-25T06:45:16;12.65;;;5.85;;
44169;SDS011;29836;52.286;9.576;2023-01-25T06:47:42;14.07;;;6.40;;
44169;SDS011;29836;52.286;9.576;2023-01-25T06:50:08;12.52;;;5.35;;
44169;SDS011;29836;52.286;9.576;2023-01-25T06:52:34;14.45;;;6.22;;
44169;SDS011;29836;52.286;9.576;2023-01-25T06:55:09;11.48;;;4.82;;
44169;SDS011;29836;52.286;9.576;2023-01-25T06:57:37;10.25;;;4.97;;
44169;SDS011;29836;52.286;9.576;2023-01-25T07:00:04;11.85;;;5.47;;
44169;SDS011;29836;52.286;9.576;2023-01-25T07:02:30;6.68;;;3.20;;
44169;SDS011;29836;52.286;9.576;2023-01-25T07:04:55;11.07;;;5.03;;
44169;SDS011;29836;52.286;9.576;2023-01-25T07:07:21;10.75;;;4.88;;
44169;SDS011;29836;52.286;9.576;2023-01-25T07:09:46;11.50;;;5.03;;
44169;SDS011;29836;52.286;9.576;2023-01-25T07:12:12;11.52;;;5.53;;
44169;SDS011;29836;52.286;9.576;2023-01-25T07:14:37;11.45;;;4.72;;
44169;SDS011;29836;52.286;9.576;2023-01-25T07:17:03;10.98;;;5.18;;
44169;SDS011;29836;52.286;9.576;2023-01-25T07:19:28;10.43;;;5.03;;
44169;SDS011;29836;52.286;9.576;2023-01-25T07:21:54;10.43;;;4.47;;
44169;SDS011;29836;52.286;9.576;2023-01-25T07:24:20;9.68;;;4.25;;
44169;SDS011;29836;52.286;9.576;2023-01-25T07:26:45;15.50;;;5.47;;
44169;SDS011;29836;52.286;9.576;2023-01-25T07:29:14;11.00;;;5.68;;
44169;SDS011;29836;52.286;9.576;2023-01-25T07:31:40;9.55;;;4.93;;
44169;SDS011;29836;52.286;9.576;2023-01-25T07:34:07;11.85;;;5.32;;
44169;SDS011;29836;52.286;9.576;2023-01-25T07:36:34;9.95;;;5.03;;
44169;SDS011;29836;52.286;9.576;2023-01-25T07:39:01;12.25;;;5.50;;
44169;SDS011;29836;52.286;9.576;2023-01-25T07:41:26;11.35;;;5.43;;
44169;SDS011;29836;52.286;9.576;2023-01-25T07:43:52;18.45;;;6.32;;
44169;SDS011;29836;52.286;9.576;2023-01-25T07:46:18;13.98;;;6.72;;
44169;SDS011;29836;52.286;9.576;2023-01-25T07:48:47;10.82;;;5.72;;
44169;SDS011;29836;52.286;9.576;2023-01-25T07:51:14;13.52;;;5.68;;
44169;SDS011;29836;52.286;9.576;2023-01-25T07:53:47;13.32;;;4.93;;
44169;SDS011;29836;52.286;9.576;2023-01-25T07:56:21;14.27;;;6.00;;
44169;SDS011;29836;52.286;9.576;2023-01-25T07:58:48;13.60;;;6.10;;
44169;SDS011;29836;52.286;9.576;2023-01-25T08:01:15;13.40;;;6.47;;
44169;SDS011;29836;52.286;9.576;2023-01-25T08:03:42;13.27;;;6.28;;
44169;SDS011;29836;52.286;9.576;2023-01-25T08:06:09;14.45;;;6.22;;
44169;SDS011;29836;52.286;9.576;2023-01-25T08:08:38;16.38;;;5.38;;
44169;SDS011;29836;52.286;9.576;2023-01-25T08:11:09;14.00;;;5.95;;
44169;SDS011;29836;52.286;9.576;2023-01-25T08:13:39;13.88;;;6.68;;
44169;SDS011;29836;52.286;9.576;2023-01-25T08:16:05;13.65;;;5.55;;
44169;SDS011;29836;52.286;9.576;2023-01-25T08:18:31;15.55;;;5.93;;
44169;SDS011;29836;52.286;9.576;2023-01-25T08:20:57;14.23;;;4.75;;
44169;SDS011;29836;52.286;9.576;2023-01-25T08:23:23;12.70;;;5.85;;
44169;SDS011;29836;52.286;9.576;2023-01-25T08:25:49;9.90;;;5.35;;
44169;SDS011;29836;52.286;9.576;2023-01-25T08:28:15;14.40;;;5.05;;
44169;SDS011;29836;52.286;9.576;2023-01-25T08:30:40;15.07;;;5.85;;
44169;SDS011;29836;52.286;9.576;2023-01-25T08:33:06;10.68;;;5.20;;
44169;SDS011;29836;52.286;9.576;2023-01-25T08:35:31;13.55;;;5.28;;
44169;SDS011;29836;52.286;9.576;2023-01-25T08:37:59;14.63;;;6.55;;
44169;SDS011;29836;52.286;9.576;2023-01-25T08:40:25;13.63;;;6.43;;
44169;SDS011;29836;52.286;9.576;2023-01-25T08:42:50;11.50;;;5.45;;
44169;SDS011;29836;52.286;9.576;2023-01-25T08:45:16;16.05;;;5.97;;
44169;SDS011;29836;52.286;9.576;2023-01-25T08:47:41;14.13;;;6.45;;
44169;SDS011;29836;52.286;9.576;2023-01-25T08:50:07;14.25;;;6.15;;
44169;SDS011;29836;52.286;9.576;2023-01-25T08:52:33;14.93;;;6.47;;
44169;SDS011;29836;52.286;9.576;2023-01-25T08:54:58;13.77;;;6.38;;
44169;SDS011;29836;52.286;9.576;2023-01-25T08:57:24;10.68;;;4.72;;
44169;SDS011;29836;52.286;9.576;2023-01-25T08:59:50;12.73;;;6.10;;
44169;SDS011;29836;52.286;9.576;2023-01-25T09:02:15;14.05;;;5.45;;
44169;SDS011;29836;52.286;9.576;2023-01-25T09:04:41;15.10;;;7.10;;
44169;SDS011;29836;52.286;9.576;2023-01-25T09:07:06;11.35;;;4.90;;
44169;SDS011;29836;52.286;9.576;2023-01-25T09:09:32;10.55;;;6.03;;
44169;SDS011;29836;52.286;9.576;2023-01-25T09:11:57;11.48;;;4.95;;
44169;SDS011;29836;52.286;9.576;2023-01-25T09:14:23;11.88;;;5.03;;
44169;SDS011;29836;52.286;9.576;2023-01-25T09:16:48;8.68;;;4.43;;
44169;SDS011;29836;52.286;9.576;2023-01-25T09:19:14;11.02;;;4.85;;
44169;SDS011;29836;52.286;9.576;2023-01-25T09:21:39;12.90;;;5.40;;
44169;SDS011;29836;52.286;9.576;2023-01-25T09:24:05;10.48;;;5.10;;
44169;SDS011;29836;52.286;9.576;2023-01-25T09:26:32;12.02;;;5.78;;
44169;SDS011;29836;52.286;9.576;2023-01-25T09:28:59;11.68;;;5.60;;
44169;SDS011;29836;52.286;9.576;2023-01-25T09:31:24;13.90;;;5.68;;
44169;SDS011;29836;52.286;9.576;2023-01-25T09:33:50;11.68;;;5.55;;
44169;SDS011;29836;52.286;9.576;2023-01-25T09:36:16;11.57;;;5.15;;
44169;SDS011;29836;52.286;9.576;2023-01-25T09:38:42;12.48;;;5.32;;
44169;SDS011;29836;52.286;9.576;2023-01-25T09:41:11;10.18;;;5.07;;
44169;SDS011;29836;52.286;9.576;2023-01-25T09:44:11;10.43;;;6.47;;
44169;SDS011;29836;52.286;9.576;2023-01-25T09:47:01;10.35;;;4.53;;
44169;SDS011;29836;52.286;9.576;2023-01-25T09:55:15;6.53;;;3.38;;
44169;SDS011;29836;52.286;9.576;2023-01-25T09:57:44;8.02;;;4.15;;
44169;SDS011;29836;52.286;9.576;2023-01-25T10:00:20;9.15;;;4.53;;
44169;SDS011;29836;52.286;9.576;2023-01-25T10:02:53;12.27;;;5.55;;
44169;SDS011;29836;52.286;9.576;2023-01-25T10:05:25;11.27;;;4.22;;
44169;SDS011;29836;52.286;9.576;2023-01-25T10:08:02;8.55;;;4.43;;
44169;SDS011;29836;52.286;9.576;2023-01-25T10:10:36;9.63;;;3.70;;
44169;SDS011;29836;52.286;9.576;2023-01-25T10:13:07;9.93;;;4.43;;
44169;SDS011;29836;52.286;9.576;2023-01-25T10:15:39;9.07;;;3.85;;
44169;SDS011;29836;52.286;9.576;2023-01-25T10:18:16;7.75;;;3.58;;
44169;SDS011;29836;52.286;9.576;2023-01-25T10:20:57;8.75;;;4.45;;
44169;SDS011;29836;52.286;9.576;2023-01-25T10:26:28;8.20;;;3.13;;
44169;SDS011;29836;52.286;9.576;2023-01-25T10:31:45;10.00;;;4.40;;
44169;SDS011;29836;52.286;9.576;2023-01-25T10:34:18;6.75;;;3.25;;
44169;SDS011;29836;52.286;9.576;2023-01-25T10:36:54;11.43;;;4.72;;
44169;SDS011;29836;52.286;9.576;2023-01-25T10:39:21;9.10;;;4.43;;
44169;SDS011;29836;52.286;9.576;2023-01-25T10:41:48;9.15;;;4.25;;
44169;SDS011;29836;52.286;9.576;2023-01-25T10:44:19;10.95;;;3.45;;
44169;SDS011;29836;52.286;9.576;2023-01-25T10:46:47;8.90;;;3.92;;
44169;SDS011;29836;52.286;9.576;2023-01-25T10:52:14;9.98;;;4.32;;
44169;SDS011;29836;52.286;9.576;2023-01-25T10:57:42;11.52;;;5.43;;
44169;SDS011;29836;52.286;9.576;2023-01-25T11:03:00;10.95;;;4.20;;
44169;SDS011;29836;52.286;9.576;2023-01-25T11:07:54;7.35;;;4.28;;
44169;SDS011;29836;52.286;9.576;2023-01-25T11:10:28;9.43;;;4.53;;
44169;SDS011;29836;52.286;9.576;2023-01-25T11:18:29;7.30;;;3.58;;
44169;SDS011;29836;52.286;9.576;2023-01-25T11:21:05;8.73;;;4.68;;
44169;SDS011;29836;52.286;9.576;2023-01-25T11:23:35;8.85;;;3.78;;
44169;SDS011;29836;52.286;9.576;2023-01-25T11:26:09;9.88;;;3.95;;
44169;SDS011;29836;52.286;9.576;2023-01-25T11:28:44;7.30;;;3.25;;
44169;SDS011;29836;52.286;9.576;2023-01-25T11:31:13;11.13;;;4.60;;
44169;SDS011;29836;52.286;9.576;2023-01-25T11:33:43;9.05;;;4.55;;
44169;SDS011;29836;52.286;9.576;2023-01-25T11:38:43;8.52;;;4.07;;
44169;SDS011;29836;52.286;9.576;2023-01-25T11:41:35;8.55;;;4.50;;
44169;SDS011;29836;52.286;9.576;2023-01-25T11:44:36;10.85;;;4.38;;
44169;SDS011;29836;52.286;9.576;2023-01-25T11:47:20;8.18;;;3.80;;
44169;SDS011;29836;52.286;9.576;2023-01-25T11:50:12;10.95;;;4.05;;
44169;SDS011;29836;52.286;9.576;2023-01-25T11:53:16;8.55;;;3.83;;
44169;SDS011;29836;52.286;9.576;2023-01-25T11:55:55;8.52;;;3.88;;
44169;SDS011;29836;52.286;9.576;2023-01-25T11:59:08;6.30;;;3.47;;
44169;SDS011;29836;52.286;9.576;2023-01-25T12:10:21;9.20;;;4.05;;
44169;SDS011;29836;52.286;9.576;2023-01-25T12:12:56;8.48;;;4.50;;
44169;SDS011;29836;52.286;9.576;2023-01-25T12:15:35;8.00;;;3.88;;
44169;SDS011;29836;52.286;9.576;2023-01-25T12:21:17;8.85;;;3.08;;
44169;SDS011;29836;52.286;9.576;2023-01-25T12:29:29;9.63;;;4.05;;
44169;SDS011;29836;52.286;9.576;2023-01-25T12:32:05;7.13;;;3.72;;
44169;SDS011;29836;52.286;9.576;2023-01-25T12:34:41;7.65;;;3.58;;
44169;SDS011;29836;52.286;9.576;2023-01-25T12:37:14;8.80;;;3.72;;
44169;SDS011;29836;52.286;9.576;2023-01-25T12:39:55;6.50;;;2.45;;
44169;SDS011;29836;52.286;9.576;2023-01-25T12:42:23;13.35;;;4.38;;
44169;SDS011;29836;52.286;9.576;2023-01-25T12:45:13;11.82;;;4.22;;
44169;SDS011;29836;52.286;9.576;2023-01-25T12:47:45;14.07;;;5.13;;
44169;SDS011;29836;52.286;9.576;2023-01-25T12:53:19;7.85;;;4.03;;
44169;SDS011;29836;52.286;9.576;2023-01-25T12:55:51;7.80;;;3.88;;
44169;SDS011;29836;52.286;9.576;2023-01-25T13:01:09;8.70;;;3.65;;
44169;SDS011;29836;52.286;9.576;2023-01-25T13:03:46;10.88;;;5.20;;
44169;SDS011;29836;52.286;9.576;2023-01-25T13:08:54;7.35;;;3.83;;
44169;SDS011;29836;52.286;9.576;2023-01-25T13:11:28;9.07;;;3.97;;
44169;SDS011;29836;52.286;9.576;2023-01-25T13:16:49;7.45;;;3.40;;
44169;SDS011;29836;52.286;9.576;2023-01-25T13:21:45;8.90;;;4.03;;
44169;SDS011;29836;52.286;9.576;2023-01-25T13:24:20;8.80;;;4.25;;
44169;SDS011;29836;52.286;9.576;2023-01-25T13:26:48;8.05;;;3.65;;
44169;SDS011;29836;52.286;9.576;2023-01-25T13:32:03;8.35;;;3.72;;
44169;SDS011;29836;52.286;9.576;2023-01-25T13:39:47;9.15;;;3.67;;
44169;SDS011;29836;52.286;9.576;2023-01-25T13:45:01;8.35;;;4.28;;
44169;SDS011;29836;52.286;9.576;2023-01-25T13:47:36;8.27;;;4.32;;
44169;SDS011;29836;52.286;9.576;2023-01-25T13:50:23;11.57;;;4.70;;
44169;SDS011;29836;52.286;9.576;2023-01-25T13:53:33;17.92;;;6.30;;
44169;SDS011;29836;52.286;9.576;2023-01-25T13:55:50;11.05;;;5.13;;
44169;SDS011;29836;52.286;9.576;2023-01-25T13:58:18;7.25;;;4.00;;
44169;SDS011;29836;52.286;9.576;2023-01-25T14:03:25;8.70;;;4.05;;
44169;SDS011;29836;52.286;9.576;2023-01-25T14:05:54;8.00;;;4.53;;
44169;SDS011;29836;52.286;9.576;2023-01-25T14:08:21;8.23;;;3.72;;
44169;SDS011;29836;52.286;9.576;2023-01-25T14:10:49;8.60;;;3.97;;
44169;SDS011;29836;52.286;9.576;2023-01-25T14:13:16;8.32;;;4.15;;
44169;SDS011;29836;52.286;9.576;2023-01-25T14:15:52;11.10;;;4.20;;
44169;SDS011;29836;52.286;9.576;2023-01-25T14:18:20;10.48;;;4.50;;
44169;SDS011;29836;52.286;9.576;2023-01-25T14:20:47;8.50;;;4.07;;
44169;SDS011;29836;52.286;9.576;2023-01-25T14:23:21;8.00;;;5.03;;
44169;SDS011;29836;52.286;9.576;2023-01-25T14:25:46;8.85;;;4.20;;
44169;SDS011;29836;52.286;9.576;2023-01-25T14:28:12;11.00;;;4.20;;
44169;SDS011;29836;52.286;9.576;2023-01-25T14:30:39;9.32;;;3.70;;
44169;SDS011;29836;52.286;9.576;2023-01-25T14:33:18;9.68;;;3.97;;
44169;SDS011;29836;52.286;9.576;2023-01-25T14:35:55;10.75;;;5.00;;
44169;SDS011;29836;52.286;9.576;2023-01-25T14:38:30;12.15;;;5.28;;
44169;SDS011;29836;52.286;9.576;2023-01-25T14:41:12;12.48;;;6.03;;
44169;SDS011;29836;52.286;9.576;2023-01-25T14:43:40;11.50;;;5.45;;
44169;SDS011;29836;52.286;9.576;2023-01-25T14:46:28;15.57;;;6.50;;
44169;SDS011;29836;52.286;9.576;2023-01-25T14:51:40;13.35;;;5.13;;
44169;SDS011;29836;52.286;9.576;2023-01-25T14:54:34;13.73;;;5.15;;
44169;SDS011;29836;52.286;9.576;2023-01-25T14:57:19;11.75;;;4.30;;
44169;SDS011;29836;52.286;9.576;2023-01-25T15:05:03;10.75;;;4.97;;
44169;SDS011;29836;52.286;9.576;2023-01-25T15:10:01;8.00;;;3.08;;
44169;SDS011;29836;52.286;9.576;2023-01-25T15:12:38;9.00;;;4.03;;
44169;SDS011;29836;52.286;9.576;2023-01-25T15:15:15;11.07;;;4.43;;
44169;SDS011;29836;52.286;9.576;2023-01-25T15:17:44;9.73;;;3.50;;
44169;SDS011;29836;52.286;9.576;2023-01-25T15:23:14;12.43;;;5.78;;
44169;SDS011;29836;52.286;9.576;2023-01-25T15:25:57;12.85;;;5.85;;
44169;SDS011;29836;52.286;9.576;2023-01-25T15:28:25;12.68;;;6.00;;
44169;SDS011;29836;52.286;9.576;2023-01-25T15:30:53;12.63;;;6.28;;
44169;SDS011;29836;52.286;9.576;2023-01-25T15:33:22;25.58;;;11.98;;
44169;SDS011;29836;52.286;9.576;2023-01-25T15:35:49;22.27;;;10.02;;
44169;SDS011;29836;52.286;9.576;2023-01-25T15:38:15;25.10;;;12.25;;
44169;SDS011;29836;52.286;9.576;2023-01-25T15:40:43;17.40;;;7.72;;
44169;SDS011;29836;52.286;9.576;2023-01-25T15:43:12;15.38;;;6.40;;
44169;SDS011;29836;52.286;9.576;2023-01-25T15:45:39;22.55;;;9.10;;
44169;SDS011;29836;52.286;9.576;2023-01-25T15:48:11;18.25;;;7.40;;
44169;SDS011;29836;52.286;9.576;2023-01-25T15:50:39;11.85;;;6.07;;
44169;SDS011;29836;52.286;9.576;2023-01-25T15:53:05;35.70;;;13.00;;
44169;SDS011;29836;52.286;9.576;2023-01-25T15:55:30;10.35;;;5.18;;
44169;SDS011;29836;52.286;9.576;2023-01-25T15:57:56;13.23;;;6.32;;
44169;SDS011;29836;52.286;9.576;2023-01-25T16:00:22;13.77;;;7.30;;
44169;SDS011;29836;52.286;9.576;2023-01-25T16:02:48;17.77;;;9.02;;
44169;SDS011;29836;52.286;9.576;2023-01-25T16:05:14;12.63;;;7.03;;
44169;SDS011;29836;52.286;9.576;2023-01-25T16:07:39;12.27;;;6.50;;
44169;SDS011;29836;52.286;9.576;2023-01-25T16:10:17;14.27;;;6.32;;
44169;SDS011;29836;52.286;9.576;2023-01-25T16:12:48;14.48;;;6.15;;
44169;SDS011;29836;52.286;9.576;2023-01-25T16:15:14;15.70;;;6.85;;
44169;SDS011;29836;52.286;9.576;2023-01-25T16:17:40;13.38;;;6.50;;
44169;SDS011;29836;52.286;9.576;2023-01-25T16:20:05;11.55;;;5.68;;
44169;SDS011;29836;52.286;9.576;2023-01-25T16:22:32;10.80;;;5.93;;
44169;SDS011;29836;52.286;9.576;2023-01-25T16:24:58;9.88;;;5.20;;
44169;SDS011;29836;52.286;9.576;2023-01-25T16:27:25;9.90;;;5.22;;
44169;SDS011;29836;52.286;9.576;2023-01-25T16:29:59;10.13;;;4.43;;